createdAt,value
2019-01-29T00:01:04.836Z,52.67
2019-01-29T00:06:09.879Z,50.33
2019-01-29T00:11:14.860Z,44.07
2019-01-29T00:16:19.839Z,51.50
2019-01-29T00:21:24.854Z,42.80
2019-01-29T00:26:29.839Z,35.07
2019-01-29T00:31:34.813Z,31.50
2019-01-29T00:36:39.827Z,29.27
2019-01-29T00:41:44.843Z,27.53
2019-01-29T00:46:49.830Z,26.63
2019-01-29T00:51:54.808Z,24.00
2019-01-29T00:56:59.799Z,18.63
2019-01-29T01:02:05.561Z,23.57
2019-01-29T01:07:10.542Z,20.07
2019-01-29T01:12:16.027Z,20.33
2019-01-29T01:17:21.027Z,16.20
2019-01-29T01:22:26.030Z,16.70
2019-01-29T01:27:31.033Z,17.70
2019-01-29T01:32:36.007Z,11.80
2019-01-29T01:37:41.028Z,13.20
2019-01-29T01:42:46.318Z,11.10
2019-01-29T01:47:51.308Z,12.07
2019-01-29T01:52:59.452Z,13.40
2019-01-29T01:58:03.052Z,15.47
2019-01-29T02:03:08.027Z,16.63
2019-01-29T02:08:13.036Z,14.83
2019-01-29T02:13:18.006Z,14.87
2019-01-29T02:18:23.060Z,21.37
2019-01-29T02:23:28.123Z,19.37
2019-01-29T02:28:33.101Z,20.03
2019-01-29T02:33:38.077Z,24.53
2019-01-29T02:38:43.069Z,27.63
2019-01-29T02:43:48.076Z,27.60
2019-01-29T02:48:53.116Z,21.93
2019-01-29T02:53:58.146Z,34.97
2019-01-29T02:59:03.120Z,36.60
2019-01-29T03:04:08.107Z,41.73
2019-01-29T03:09:13.085Z,50.13
2019-01-29T03:14:18.071Z,49.60
2019-01-29T03:19:23.052Z,43.93
2019-01-29T03:24:28.116Z,49.33
2019-01-29T03:29:33.112Z,51.20
2019-01-29T03:34:38.100Z,57.33
2019-01-29T03:39:45.858Z,75.27
2019-01-29T03:44:50.844Z,84.87
2019-01-29T03:49:55.891Z,86.33
2019-01-29T03:55:01.093Z,80.77
2019-01-29T04:00:10.905Z,70.60
2019-01-29T04:05:15.905Z,67.03
2019-01-29T04:10:21.488Z,31.67
2019-01-29T04:15:26.459Z,36.30
2019-01-29T04:20:31.456Z,29.37
2019-01-29T04:25:36.433Z,22.60
2019-01-29T04:30:41.423Z,27.40
2019-01-29T04:35:46.395Z,27.73
2019-01-29T04:40:51.727Z,27.67
2019-01-29T04:45:56.708Z,28.03
2019-01-29T04:51:02.151Z,26.67
2019-01-29T04:56:07.263Z,19.83
2019-01-29T05:01:14.194Z,30.30
2019-01-29T05:06:19.180Z,31.70
2019-01-29T05:11:24.218Z,32.37
2019-01-29T05:16:29.215Z,27.57
2019-01-29T05:21:34.199Z,23.70
2019-01-29T05:26:39.183Z,19.90
2019-01-29T05:31:44.178Z,21.77
2019-01-29T05:36:49.167Z,22.83
2019-01-29T05:41:54.157Z,24.53
2019-01-29T05:46:59.166Z,24.90
2019-01-29T05:52:04.658Z,20.70
2019-01-29T05:57:09.626Z,25.67
2019-01-29T06:02:14.616Z,27.27
2019-01-29T06:07:19.647Z,23.13
2019-01-29T06:12:24.929Z,21.57
2019-01-29T06:17:29.949Z,18.13
2019-01-29T06:22:34.929Z,21.50
2019-01-29T06:27:39.919Z,23.50
2019-01-29T06:32:45.179Z,28.17
2019-01-29T06:37:50.153Z,28.67
2019-01-29T06:42:55.163Z,31.97
2019-01-29T06:48:00.139Z,29.40
2019-01-29T06:53:05.310Z,26.73
2019-01-29T06:58:10.313Z,21.13
2019-01-29T07:03:15.778Z,12.47
2019-01-29T07:08:20.846Z,13.83
2019-01-29T07:13:25.793Z,14.77
2019-01-29T07:18:52.533Z,12.40
2019-01-29T07:23:57.542Z,13.17
2019-01-29T07:29:02.691Z,14.53
2019-01-29T07:34:09.158Z,14.53
2019-01-29T07:39:14.439Z,16.70
2019-01-29T07:44:21.501Z,18.00
2019-01-29T07:49:26.875Z,19.63
2019-01-29T07:54:33.383Z,26.47
2019-01-29T07:59:38.475Z,34.90
2019-01-29T08:04:43.460Z,39.43
2019-01-29T08:09:48.459Z,40.07
2019-01-29T08:14:53.447Z,50.63
2019-01-29T08:19:58.458Z,55.77
2019-01-29T08:25:03.436Z,57.20
2019-01-29T08:30:09.263Z,62.57
2019-01-29T08:35:14.671Z,61.87
2019-01-29T08:40:19.673Z,56.37
2019-01-29T08:45:24.795Z,53.70
2019-01-29T08:50:29.899Z,63.43
2019-01-29T08:55:34.900Z,72.83
2019-01-29T09:00:40.155Z,83.37
2019-01-29T09:05:45.132Z,92.93
2019-01-29T09:10:50.267Z,89.63
2019-01-29T10:15:10.069Z,91.90
2019-01-29T10:20:15.296Z,70.47
2019-01-29T10:25:20.827Z,73.20
2019-01-29T10:30:26.492Z,140.73
2019-01-29T10:35:31.872Z,74.87
2019-01-29T10:40:37.233Z,73.23
2019-01-29T10:45:42.391Z,82.33
2019-01-29T10:50:47.452Z,86.37
2019-01-29T10:55:52.489Z,67.07
2019-01-29T11:00:57.514Z,80.27
2019-01-29T11:06:02.939Z,55.03
2019-01-29T11:11:08.181Z,57.20
2019-01-29T11:16:13.226Z,58.47
2019-01-29T11:21:18.248Z,76.33
2019-01-29T11:26:23.275Z,77.83
2019-01-29T11:31:29.565Z,66.53
2019-01-29T11:36:34.629Z,56.27
2019-01-29T11:41:39.661Z,53.10
2019-01-29T11:46:44.681Z,75.00
2019-01-29T11:51:49.749Z,135.73
2019-01-29T11:56:54.776Z,76.57
2019-01-29T12:02:02.143Z,73.03
2019-01-29T12:07:07.180Z,71.63
2019-01-29T12:12:12.193Z,56.50
2019-01-29T12:17:17.225Z,38.27
2019-01-29T12:22:22.284Z,25.30
2019-01-29T12:27:27.403Z,38.23
2019-01-29T12:32:32.431Z,38.67
2019-01-29T12:37:37.481Z,34.23
2019-01-29T12:42:42.509Z,38.67
2019-01-29T12:47:48.311Z,47.60
2019-01-29T12:53:03.680Z,45.87
2019-01-29T12:58:08.644Z,48.40
2019-01-29T13:03:13.682Z,50.13
2019-01-29T13:08:19.003Z,51.53
2019-01-29T13:13:24.324Z,59.47
2019-01-29T13:18:29.349Z,66.53
2019-01-29T13:23:34.450Z,80.47
2019-01-29T13:28:39.460Z,80.90
2019-01-29T13:33:46.004Z,51.13
2019-01-29T13:38:51.008Z,41.43
2019-01-29T13:43:56.198Z,44.57
2019-01-29T13:49:01.222Z,45.07
2019-01-29T13:54:06.253Z,43.40
2019-01-29T14:04:22.233Z,31.33
2019-01-29T14:09:27.274Z,34.73
2019-01-29T14:14:33.597Z,26.97
2019-01-29T14:19:38.622Z,32.53
2019-01-29T14:24:43.972Z,31.97
2019-01-29T14:29:48.992Z,31.50
2019-01-29T14:34:54.062Z,34.13
2019-01-29T14:40:19.176Z,32.67
2019-01-29T14:45:26.561Z,35.20
2019-01-29T14:50:31.732Z,37.93
2019-01-29T14:55:37.069Z,37.60
2019-01-29T15:00:47.253Z,42.83
2019-01-29T15:05:52.346Z,39.70
2019-01-29T15:10:57.387Z,39.20
2019-01-29T15:16:31.133Z,43.07
2019-01-29T15:21:37.983Z,39.40
2019-01-29T15:26:43.154Z,34.87
2019-01-29T15:31:48.172Z,35.20
2019-01-29T15:36:53.214Z,30.87
2019-01-29T15:41:58.242Z,27.67
2019-01-29T15:47:03.268Z,26.30
2019-01-29T15:52:08.346Z,24.40
2019-01-29T15:57:14.310Z,21.63
2019-01-29T16:02:19.940Z,26.93
2019-01-29T16:07:24.967Z,26.77
2019-01-29T16:12:29.988Z,23.63
2019-01-29T16:17:35.010Z,24.67
2019-01-29T16:22:40.028Z,25.40
2019-01-29T16:27:45.098Z,23.10
2019-01-29T16:32:50.117Z,23.87
2019-01-29T16:37:55.129Z,25.57
2019-01-29T16:43:00.172Z,31.07
2019-01-29T16:48:06.151Z,30.37
2019-01-29T16:53:11.176Z,36.20
2019-01-29T16:58:16.290Z,79.77
2019-01-29T17:03:21.241Z,37.30
2019-01-29T17:08:26.284Z,40.17
2019-01-29T17:13:31.632Z,37.00
2019-01-29T17:18:36.657Z,32.07
2019-01-29T17:23:41.684Z,31.80
2019-01-29T17:28:46.707Z,32.30
2019-01-29T17:33:51.747Z,32.13
2019-01-29T17:38:56.980Z,29.13
2019-01-29T17:44:02.010Z,27.97
2019-01-29T17:49:07.089Z,26.90
2019-01-29T17:54:12.110Z,27.30
2019-01-29T17:59:17.132Z,27.00
2019-01-29T18:04:22.157Z,26.20
2019-01-29T18:09:27.182Z,24.53
2019-01-29T18:14:32.208Z,24.90
2019-01-29T18:19:37.250Z,24.03
2019-01-29T18:24:42.324Z,26.33
2019-01-29T18:29:47.360Z,24.97
2019-01-29T18:34:52.388Z,26.17
2019-01-29T18:39:57.425Z,30.57
2019-01-29T18:45:02.456Z,28.37
2019-01-29T18:50:09.261Z,34.77
2019-01-29T18:55:14.609Z,30.87
2019-01-29T19:00:21.872Z,38.73
2019-01-29T19:05:26.925Z,41.10
2019-01-29T19:10:31.973Z,38.83
2019-01-29T19:15:37.199Z,30.30
2019-01-29T19:20:42.264Z,29.13
2019-01-29T19:25:47.306Z,34.93
2019-01-29T19:30:52.337Z,30.03
2019-01-29T19:35:57.690Z,33.00
2019-01-29T19:41:02.693Z,30.63
2019-01-29T19:46:07.721Z,30.17
2019-01-29T19:51:12.796Z,31.20
2019-01-29T19:56:17.818Z,35.83
2019-01-29T20:01:22.852Z,36.50
2019-01-29T20:06:27.881Z,41.70
2019-01-29T20:11:32.913Z,39.83
2019-01-29T20:16:37.932Z,38.00
2019-01-29T20:21:42.955Z,40.30
2019-01-29T20:26:48.041Z,47.07
2019-01-29T20:31:53.015Z,42.67
2019-01-29T20:36:58.036Z,39.83
2019-01-29T20:42:05.827Z,41.97
2019-01-29T20:47:10.892Z,48.87
2019-01-29T20:52:15.936Z,56.13
2019-01-29T20:57:20.954Z,55.30
2019-01-29T21:02:25.985Z,45.80
2019-01-29T21:07:31.033Z,38.63
2019-01-29T21:12:36.068Z,47.80
2019-01-29T21:17:41.094Z,51.13
2019-01-29T21:22:46.124Z,44.07
2019-01-29T21:27:51.184Z,45.70
2019-01-29T21:32:56.214Z,45.33
2019-01-29T21:38:01.250Z,45.47
2019-01-29T21:43:06.523Z,55.37
2019-01-29T21:48:11.547Z,47.33
2019-01-29T21:53:16.588Z,52.23
2019-01-29T21:58:21.625Z,43.77
2019-01-29T22:03:26.692Z,47.27
2019-01-29T22:08:31.793Z,45.40
2019-01-29T22:13:36.803Z,40.80
2019-01-29T22:18:41.831Z,46.30
2019-01-29T22:23:46.857Z,42.87
2019-01-29T22:28:51.920Z,42.40
2019-01-29T22:33:56.935Z,44.20
2019-01-29T22:39:01.969Z,39.10
2019-01-29T22:44:16.837Z,41.13
2019-01-29T22:49:22.952Z,39.27
2019-01-29T22:54:27.990Z,38.97
2019-01-29T22:59:33.679Z,37.63
2019-01-29T23:04:43.924Z,33.77
2019-01-29T23:09:49.424Z,33.63
2019-01-29T23:14:55.778Z,31.33
2019-01-29T23:20:02.750Z,30.20
2019-01-29T23:25:09.042Z,30.20
2019-01-29T23:30:18.007Z,26.80
2019-01-29T23:35:22.967Z,27.73
2019-01-29T23:40:27.977Z,28.57
2019-01-29T23:45:33.012Z,24.13
2019-01-29T23:50:38.057Z,25.73
2019-01-29T23:55:43.353Z,28.77
